createdAt,value
2022-09-23T00:01:41.343Z,100.00
2022-09-23T00:04:10.231Z,100.00
2022-09-23T00:06:41.011Z,100.00
2022-09-23T00:09:09.686Z,100.00
2022-09-23T00:11:38.512Z,100.00
2022-09-23T00:14:07.107Z,100.00
2022-09-23T00:16:36.500Z,100.00
2022-09-23T00:19:06.492Z,100.00
2022-09-23T00:21:34.232Z,100.00
2022-09-23T00:24:02.928Z,100.00
2022-09-23T00:26:30.659Z,100.00
2022-09-23T00:28:59.288Z,100.00
2022-09-23T00:31:28.406Z,100.00
2022-09-23T00:34:01.032Z,100.00
2022-09-23T00:36:32.341Z,100.00
2022-09-23T00:39:00.204Z,100.00
2022-09-23T00:41:28.323Z,100.00
2022-09-23T00:44:02.594Z,100.00
2022-09-23T00:46:43.232Z,100.00
2022-09-23T00:49:30.513Z,100.00
2022-09-23T00:52:11.899Z,100.00
2022-09-23T00:54:42.796Z,100.00
2022-09-23T00:57:15.738Z,100.00
2022-09-23T00:59:45.174Z,100.00
2022-09-23T01:02:15.079Z,100.00
2022-09-23T01:04:43.575Z,100.00
2022-09-23T01:07:12.201Z,100.00
2022-09-23T01:09:40.102Z,100.00
2022-09-23T01:12:37.616Z,100.00
2022-09-23T01:15:25.179Z,100.00
2022-09-23T01:18:14.763Z,100.00
2022-09-23T01:21:35.646Z,100.00
2022-09-23T01:24:33.905Z,100.00
2022-09-23T01:27:31.474Z,100.00
2022-09-23T01:30:39.245Z,100.00
2022-09-23T01:34:07.652Z,100.00
2022-09-23T01:36:51.439Z,100.00
2022-09-23T01:39:50.272Z,100.00
2022-09-23T01:43:18.532Z,100.00
2022-09-23T01:45:48.642Z,100.00
2022-09-23T01:48:52.299Z,100.00
2022-09-23T01:51:39.022Z,100.00
2022-09-23T01:54:12.202Z,100.00
2022-09-23T01:56:55.234Z,100.00
2022-09-23T01:59:41.187Z,100.00
2022-09-23T02:02:19.413Z,100.00
2022-09-23T02:05:05.477Z,100.00
2022-09-23T02:08:00.808Z,100.00
2022-09-23T02:10:38.006Z,100.00
2022-09-23T02:13:30.061Z,100.00
2022-09-23T02:16:04.161Z,100.00
2022-09-23T02:18:46.310Z,100.00
2022-09-23T02:21:16.615Z,100.00
2022-09-23T02:23:55.256Z,100.00
2022-09-23T02:26:35.394Z,100.00
2022-09-23T02:29:27.064Z,100.00
2022-09-23T02:32:33.374Z,100.00
2022-09-23T02:35:37.545Z,100.00
2022-09-23T02:38:38.245Z,100.00
2022-09-23T02:41:42.030Z,100.00
2022-09-23T02:44:15.335Z,100.00
2022-09-23T02:46:44.949Z,100.00
2022-09-23T02:49:30.431Z,100.00
2022-09-23T02:52:04.911Z,100.00
2022-09-23T02:54:35.540Z,100.00
2022-09-23T02:57:08.048Z,100.00
2022-09-23T02:59:37.837Z,100.00
2022-09-23T03:03:19.214Z,100.00
2022-09-23T03:05:58.213Z,100.00
2022-09-23T03:08:59.435Z,100.00
2022-09-23T03:11:28.649Z,100.00
2022-09-23T03:14:33.617Z,100.00
2022-09-23T03:17:48.124Z,100.00
2022-09-23T03:20:42.848Z,100.00
2022-09-23T03:23:15.366Z,100.00
2022-09-23T03:25:48.613Z,100.00
2022-09-23T03:28:20.422Z,100.00
2022-09-23T03:30:52.046Z,100.00
2022-09-23T03:33:29.023Z,100.00
2022-09-23T03:36:28.584Z,100.00
2022-09-23T03:39:10.648Z,100.00
2022-09-23T03:41:50.990Z,100.00
2022-09-23T03:44:22.048Z,100.00
2022-09-23T03:46:50.332Z,100.00
2022-09-23T03:49:33.492Z,100.00
2022-09-23T03:52:03.839Z,100.00
2022-09-23T03:54:34.123Z,100.00
2022-09-23T03:57:04.308Z,100.00
2022-09-23T03:59:33.063Z,100.00
2022-09-23T04:02:02.728Z,100.00
2022-09-23T04:04:34.240Z,100.00
2022-09-23T04:07:02.744Z,100.00
2022-09-23T04:09:31.817Z,100.00
2022-09-23T04:12:00.956Z,100.00
2022-09-23T04:14:29.917Z,100.00
2022-09-23T04:16:58.718Z,100.00
2022-09-23T04:19:27.342Z,100.00
2022-09-23T04:21:55.071Z,100.00
2022-09-23T04:24:23.821Z,100.00
2022-09-23T04:26:55.232Z,100.00
2022-09-23T04:29:25.701Z,100.00
2022-09-23T04:31:54.986Z,100.00
2022-09-23T04:34:23.337Z,100.00
2022-09-23T04:36:51.174Z,100.00
2022-09-23T04:39:20.241Z,100.00
2022-09-23T04:41:48.952Z,100.00
2022-09-23T04:44:17.624Z,100.00
2022-09-23T04:46:48.302Z,100.00
2022-09-23T04:49:18.617Z,100.00
2022-09-23T04:51:48.016Z,100.00
2022-09-23T04:54:17.506Z,100.00
2022-09-23T04:56:46.192Z,100.00
2022-09-23T04:59:14.991Z,100.00
2022-09-23T05:01:43.256Z,100.00
2022-09-23T05:04:14.104Z,100.00
2022-09-23T05:06:46.449Z,100.00
2022-09-23T05:09:17.684Z,100.00
2022-09-23T05:11:47.342Z,100.00
2022-09-23T05:14:16.845Z,100.00
2022-09-23T05:16:46.308Z,100.00
2022-09-23T05:19:15.618Z,100.00
2022-09-23T05:21:44.311Z,100.00
2022-09-23T05:24:13.886Z,100.00
2022-09-23T05:26:43.608Z,100.00
2022-09-23T05:29:13.010Z,100.00
2022-09-23T05:31:42.545Z,100.00
2022-09-23T05:34:11.299Z,100.00
2022-09-23T05:36:39.966Z,100.00
2022-09-23T05:39:09.050Z,100.00
2022-09-23T05:41:38.381Z,100.00
2022-09-23T05:44:07.803Z,100.00
2022-09-23T05:46:36.524Z,100.00
2022-09-23T05:49:06.294Z,100.00
2022-09-23T05:51:36.061Z,100.00
2022-09-23T05:54:06.609Z,100.00
2022-09-23T05:56:37.402Z,100.00
2022-09-23T05:59:06.981Z,93.25
2022-09-23T06:01:38.641Z,91.03
2022-09-23T06:04:08.431Z,89.97
2022-09-23T06:06:42.173Z,86.16
2022-09-23T06:09:14.528Z,81.12
2022-09-23T06:11:44.150Z,74.21
2022-09-23T06:14:15.063Z,77.88
2022-09-23T06:16:45.021Z,88.07
2022-09-23T06:19:13.594Z,95.17
2022-09-23T06:21:42.229Z,97.40
2022-09-23T06:24:14.672Z,96.25
2022-09-23T06:26:45.567Z,96.19
2022-09-23T06:29:13.632Z,94.80
2022-09-23T06:31:42.217Z,95.39
2022-09-23T06:34:14.658Z,96.18
2022-09-23T06:36:46.433Z,95.79
2022-09-23T06:39:16.260Z,95.68
2022-09-23T06:41:45.450Z,95.14
2022-09-23T06:44:15.598Z,94.73
2022-09-23T06:46:44.438Z,94.01
2022-09-23T06:49:13.606Z,93.39
2022-09-23T06:51:44.021Z,92.59
2022-09-23T06:54:11.742Z,92.42
2022-09-23T06:56:40.216Z,90.80
2022-09-23T06:59:13.295Z,90.14
2022-09-23T07:01:42.022Z,88.85
2022-09-23T07:04:10.901Z,82.85
2022-09-23T07:06:38.731Z,64.94
2022-09-23T07:09:09.034Z,67.84
2022-09-23T07:11:37.993Z,80.26
2022-09-23T07:14:05.857Z,83.03
2022-09-23T07:16:33.686Z,85.29
2022-09-23T07:19:01.567Z,83.34
2022-09-23T07:21:29.339Z,83.97
2022-09-23T07:23:58.359Z,83.61
2022-09-23T07:26:27.222Z,82.82
2022-09-23T07:29:04.880Z,81.82
2022-09-23T07:31:39.742Z,81.36
2022-09-23T07:34:11.856Z,81.26
2022-09-23T07:36:41.180Z,79.52
2022-09-23T07:39:12.563Z,78.71
2022-09-23T07:41:44.810Z,78.07
2022-09-23T07:44:13.162Z,76.13
2022-09-23T07:46:40.887Z,74.53
2022-09-23T07:49:10.687Z,74.16
2022-09-23T07:51:40.900Z,73.66
2022-09-23T07:54:14.840Z,72.83
2022-09-23T07:56:44.648Z,74.18
2022-09-23T07:59:18.485Z,71.64
2022-09-23T08:01:52.799Z,70.89
2022-09-23T08:04:30.152Z,70.41
2022-09-23T08:07:05.131Z,71.87
2022-09-23T08:09:43.210Z,69.50
2022-09-23T08:12:19.738Z,69.28
2022-09-23T08:14:49.230Z,69.82
2022-09-23T08:17:17.128Z,70.36
2022-09-23T08:19:45.580Z,70.33
2022-09-23T08:22:14.058Z,69.47
2022-09-23T08:24:43.826Z,69.63
2022-09-23T08:27:13.250Z,66.74
2022-09-23T08:29:41.141Z,68.66
2022-09-23T08:32:10.570Z,67.70
2022-09-23T08:34:40.162Z,69.41
2022-09-23T08:37:11.738Z,72.41
2022-09-23T08:39:39.423Z,71.25
2022-09-23T08:42:20.539Z,71.19
2022-09-23T08:45:05.622Z,72.99
2022-09-23T08:48:10.819Z,72.44
2022-09-23T08:50:48.786Z,71.58
2022-09-23T08:53:30.294Z,71.56
2022-09-23T08:56:22.703Z,67.25
2022-09-23T08:59:14.938Z,66.34
2022-09-23T09:01:52.658Z,67.48
2022-09-23T09:04:36.623Z,63.43
2022-09-23T09:07:38.773Z,62.73
2022-09-23T09:10:26.952Z,60.90
2022-09-23T09:13:11.235Z,60.64
2022-09-23T09:16:09.870Z,61.66
2022-09-23T09:18:53.449Z,60.91
2022-09-23T09:21:35.419Z,60.45
2022-09-23T09:24:19.909Z,62.70
2022-09-23T09:26:49.390Z,63.06
2022-09-23T09:29:43.291Z,61.29
2022-09-23T09:32:38.990Z,61.34
2022-09-23T09:35:29.426Z,58.70
2022-09-23T09:37:59.093Z,58.28
2022-09-23T09:40:30.696Z,61.51
2022-09-23T09:43:00.195Z,62.70
2022-09-23T09:46:46.093Z,60.23
2022-09-23T09:49:54.028Z,64.68
2022-09-23T09:52:29.857Z,65.58
2022-09-23T09:55:26.990Z,65.84
2022-09-23T09:58:05.810Z,62.09
2022-09-23T10:00:46.111Z,61.96
2022-09-23T10:03:13.677Z,59.89
2022-09-23T10:05:49.441Z,60.97
2022-09-23T10:08:38.075Z,58.32
2022-09-23T10:11:18.222Z,58.14
2022-09-23T10:14:13.620Z,58.53
2022-09-23T10:16:42.529Z,59.65
2022-09-23T10:19:29.104Z,59.68
2022-09-23T10:22:04.942Z,59.56
2022-09-23T10:24:37.061Z,57.43
2022-09-23T10:27:12.193Z,58.54
2022-09-23T10:29:51.559Z,61.02
2022-09-23T10:32:38.786Z,61.97
2022-09-23T10:35:09.138Z,62.59
2022-09-23T10:37:43.702Z,61.39
2022-09-23T10:40:49.440Z,60.23
2022-09-23T10:44:07.298Z,60.51
2022-09-23T10:46:49.391Z,61.70
2022-09-23T10:50:18.709Z,62.67
2022-09-23T10:52:59.622Z,64.13
2022-09-23T10:56:34.043Z,62.49
2022-09-23T11:00:18.107Z,61.77
2022-09-23T11:03:41.929Z,63.78
2022-09-23T11:06:43.490Z,64.48
2022-09-23T11:10:23.236Z,63.61
2022-09-23T11:13:54.680Z,63.52
2022-09-23T11:17:22.505Z,64.51
2022-09-23T11:20:32.131Z,64.36
2022-09-23T11:23:44.237Z,64.24
2022-09-23T11:27:05.120Z,63.17
2022-09-23T11:30:14.277Z,63.50
2022-09-23T11:33:14.532Z,64.04
2022-09-23T11:35:56.975Z,63.33
2022-09-23T11:38:36.229Z,63.74
2022-09-23T11:41:30.097Z,62.40
2022-09-23T11:44:30.167Z,64.22
2022-09-23T11:47:08.263Z,62.76
2022-09-23T11:50:27.842Z,61.24
2022-09-23T11:53:48.977Z,62.55
2022-09-23T11:56:47.903Z,62.81
2022-09-23T11:59:55.191Z,61.92
2022-09-23T12:03:01.055Z,62.50
2022-09-23T12:05:44.453Z,63.01
2022-09-23T12:08:39.813Z,62.97
2022-09-23T12:12:02.118Z,62.73
2022-09-23T12:14:49.914Z,62.46
2022-09-23T12:18:04.412Z,62.27
2022-09-23T12:21:45.825Z,61.79
2022-09-23T12:24:41.392Z,61.99
2022-09-23T12:27:29.201Z,63.16
2022-09-23T12:30:23.798Z,60.91
2022-09-23T12:32:55.042Z,60.88
2022-09-23T12:35:41.426Z,62.27
2022-09-23T12:38:54.363Z,61.20
2022-09-23T12:41:38.978Z,60.71
2022-09-23T12:44:15.043Z,61.33
2022-09-23T12:46:47.172Z,61.64
2022-09-23T12:49:30.055Z,60.45
2022-09-23T12:52:17.895Z,61.85
2022-09-23T12:54:51.325Z,61.19
2022-09-23T12:57:34.137Z,63.18
2022-09-23T13:00:16.327Z,62.62
2022-09-23T13:03:16.401Z,62.46
2022-09-23T13:06:33.902Z,60.81
2022-09-23T13:09:02.791Z,61.85
2022-09-23T13:11:33.351Z,62.02
2022-09-23T13:14:05.219Z,63.38
2022-09-23T13:16:45.735Z,62.17
2022-09-23T13:19:26.602Z,60.71
2022-09-23T13:21:55.129Z,63.08
2022-09-23T13:24:23.626Z,63.64
2022-09-23T13:27:15.606Z,65.05
2022-09-23T13:29:56.944Z,61.62
2022-09-23T13:32:38.456Z,60.94
2022-09-23T13:35:38.637Z,60.78
2022-09-23T13:38:19.207Z,60.50
2022-09-23T13:40:47.588Z,62.43
2022-09-23T13:43:51.943Z,60.37
2022-09-23T13:46:25.478Z,61.17
2022-09-23T13:48:55.953Z,62.16
2022-09-23T13:51:36.360Z,62.35
2022-09-23T13:54:06.222Z,60.54
2022-09-23T13:56:36.756Z,64.54
2022-09-23T13:59:38.565Z,63.39
2022-09-23T14:02:17.521Z,62.32
2022-09-23T14:04:47.121Z,62.25
2022-09-23T14:07:21.790Z,63.06
2022-09-23T14:09:54.660Z,63.99
2022-09-23T14:12:23.378Z,63.13
2022-09-23T14:14:53.790Z,65.41
2022-09-23T14:17:23.888Z,65.87
2022-09-23T14:19:52.544Z,62.63
2022-09-23T14:22:28.278Z,66.61
2022-09-23T14:24:57.906Z,66.89
2022-09-23T14:27:36.590Z,65.10
2022-09-23T14:30:07.029Z,68.02
2022-09-23T14:32:36.604Z,66.77
2022-09-23T14:35:14.664Z,68.88
2022-09-23T14:38:05.143Z,69.27
2022-09-23T14:41:17.329Z,68.98
2022-09-23T14:44:01.499Z,68.78
2022-09-23T14:46:37.364Z,66.70
2022-09-23T14:49:11.899Z,68.62
2022-09-23T14:52:01.028Z,71.17
2022-09-23T14:54:36.718Z,67.92
2022-09-23T14:57:28.443Z,70.22
2022-09-23T15:00:02.634Z,71.15
2022-09-23T15:02:44.737Z,69.70
2022-09-23T15:05:18.409Z,71.79
2022-09-23T15:07:56.684Z,71.95
2022-09-23T15:10:37.885Z,70.58
2022-09-23T15:13:20.234Z,73.16
2022-09-23T15:15:53.722Z,70.94
2022-09-23T15:18:34.115Z,71.92
2022-09-23T15:21:22.237Z,72.42
2022-09-23T15:23:55.047Z,69.92
2022-09-23T15:26:26.953Z,69.80
2022-09-23T15:28:58.550Z,71.43
2022-09-23T15:31:27.366Z,70.39
2022-09-23T15:33:56.534Z,71.80
2022-09-23T15:36:28.355Z,71.11
2022-09-23T15:39:05.320Z,72.96
2022-09-23T15:41:34.149Z,72.37
2022-09-23T15:44:16.507Z,71.68
2022-09-23T15:46:50.089Z,71.25
2022-09-23T15:49:36.412Z,72.94
2022-09-23T15:52:09.866Z,73.17
2022-09-23T15:54:40.006Z,73.46
2022-09-23T15:57:09.889Z,74.96
2022-09-23T15:59:38.707Z,74.84
2022-09-23T16:02:21.342Z,75.38
2022-09-23T16:04:52.675Z,73.70
2022-09-23T16:07:21.157Z,71.50
2022-09-23T16:09:49.682Z,74.14
2022-09-23T16:12:17.880Z,74.27
2022-09-23T16:14:45.960Z,76.28
2022-09-23T16:17:16.514Z,76.66
2022-09-23T16:19:46.201Z,77.32
2022-09-23T16:22:16.959Z,77.39
2022-09-23T16:24:47.555Z,78.34
2022-09-23T16:27:19.287Z,78.83
2022-09-23T16:29:47.910Z,79.29
2022-09-23T16:32:21.537Z,79.95
2022-09-23T16:34:50.800Z,81.71
2022-09-23T16:37:21.439Z,82.26
2022-09-23T16:39:50.789Z,82.91
2022-09-23T16:42:19.502Z,85.63
2022-09-23T16:44:48.936Z,84.60
2022-09-23T16:47:18.475Z,85.12
2022-09-23T16:49:48.041Z,86.45
2022-09-23T16:52:17.567Z,88.09
2022-09-23T16:54:48.627Z,88.74
2022-09-23T16:57:18.031Z,90.49
2022-09-23T17:00:05.300Z,91.94
2022-09-23T17:02:53.261Z,91.94
2022-09-23T17:05:21.885Z,92.19
2022-09-23T17:07:51.274Z,92.93
2022-09-23T17:10:21.421Z,93.08
2022-09-23T17:12:53.791Z,94.01
2022-09-23T17:15:23.594Z,94.26
2022-09-23T17:17:53.018Z,95.02
2022-09-23T17:20:21.669Z,95.31
2022-09-23T17:22:50.273Z,95.93
2022-09-23T17:25:20.670Z,96.50
2022-09-23T17:27:51.796Z,96.16
2022-09-23T17:30:21.514Z,95.72
2022-09-23T17:32:49.420Z,96.17
2022-09-23T17:35:19.911Z,96.66
2022-09-23T17:37:50.152Z,97.18
2022-09-23T17:40:19.678Z,96.93
2022-09-23T17:42:48.374Z,97.54
2022-09-23T17:45:18.171Z,98.94
2022-09-23T17:47:51.362Z,99.00
2022-09-23T17:50:24.607Z,99.11
2022-09-23T17:52:53.188Z,99.31
2022-09-23T17:55:22.596Z,99.16
2022-09-23T17:57:52.038Z,99.07
2022-09-23T18:00:21.593Z,99.76
2022-09-23T18:02:53.017Z,99.91
2022-09-23T18:05:23.122Z,100.00
2022-09-23T18:07:52.571Z,100.00
2022-09-23T18:10:21.979Z,100.00
2022-09-23T18:12:50.661Z,99.67
2022-09-23T18:15:20.139Z,100.00
2022-09-23T18:17:49.845Z,100.00
2022-09-23T18:20:21.236Z,100.00
2022-09-23T18:22:50.854Z,100.00
2022-09-23T18:25:38.039Z,100.00
2022-09-23T18:28:09.920Z,100.00
2022-09-23T18:30:40.257Z,100.00
2022-09-23T18:33:09.855Z,100.00
2022-09-23T18:35:41.198Z,100.00
2022-09-23T18:38:10.797Z,100.00
2022-09-23T18:40:55.584Z,100.00
2022-09-23T18:43:37.434Z,100.00
2022-09-23T18:46:22.544Z,100.00
2022-09-23T18:49:11.770Z,100.00
2022-09-23T18:51:57.422Z,100.00
2022-09-23T18:54:28.486Z,100.00
2022-09-23T18:56:59.398Z,100.00
2022-09-23T18:59:29.849Z,100.00
2022-09-23T19:01:59.423Z,100.00
2022-09-23T19:04:29.178Z,100.00
2022-09-23T19:06:59.584Z,100.00
2022-09-23T19:09:29.191Z,100.00
2022-09-23T19:11:58.763Z,100.00
2022-09-23T19:14:28.321Z,100.00
2022-09-23T19:16:58.949Z,100.00
2022-09-23T19:19:27.214Z,100.00
2022-09-23T19:21:57.659Z,100.00
2022-09-23T19:24:25.489Z,100.00
2022-09-23T19:26:55.498Z,100.00
2022-09-23T19:29:53.002Z,100.00
2022-09-23T19:32:24.595Z,100.00
2022-09-23T19:34:52.374Z,100.00
2022-09-23T19:37:22.626Z,100.00
2022-09-23T19:39:52.213Z,100.00
2022-09-23T19:42:22.086Z,100.00
2022-09-23T19:44:53.181Z,100.00
2022-09-23T19:47:22.649Z,100.00
2022-09-23T19:49:52.187Z,100.00
2022-09-23T19:52:22.986Z,100.00
2022-09-23T19:54:52.474Z,100.00
2022-09-23T19:57:21.148Z,100.00
2022-09-23T19:59:50.649Z,100.00
2022-09-23T20:02:20.158Z,100.00
2022-09-23T20:04:51.428Z,100.00
2022-09-23T20:07:21.061Z,100.00
2022-09-23T20:09:50.591Z,100.00
2022-09-23T20:12:20.258Z,100.00
2022-09-23T20:14:51.896Z,100.00
2022-09-23T20:17:21.339Z,100.00
2022-09-23T20:19:50.735Z,100.00
2022-09-23T20:22:28.535Z,100.00
2022-09-23T20:25:03.187Z,100.00
2022-09-23T20:27:34.461Z,100.00
2022-09-23T20:30:04.332Z,100.00
2022-09-23T20:32:37.811Z,100.00
2022-09-23T20:35:09.677Z,100.00
2022-09-23T20:37:39.261Z,100.00
2022-09-23T20:40:10.288Z,100.00
2022-09-23T20:42:39.819Z,100.00
2022-09-23T20:45:10.123Z,100.00
2022-09-23T20:47:39.595Z,100.00
2022-09-23T20:50:09.705Z,100.00
2022-09-23T20:52:39.737Z,100.00
2022-09-23T20:55:09.537Z,100.00
2022-09-23T20:57:39.023Z,100.00
2022-09-23T21:00:09.265Z,100.00
2022-09-23T21:02:38.781Z,100.00
2022-09-23T21:05:10.478Z,100.00
2022-09-23T21:07:40.001Z,100.00
2022-09-23T21:10:08.918Z,100.00
2022-09-23T21:12:37.684Z,100.00
2022-09-23T21:15:07.935Z,100.00
2022-09-23T21:17:37.488Z,100.00
2022-09-23T21:20:08.462Z,100.00
2022-09-23T21:22:38.003Z,100.00
2022-09-23T21:27:59.508Z,100.00
2022-09-23T21:30:29.525Z,100.00
2022-09-23T21:33:00.059Z,100.00
2022-09-23T21:35:29.686Z,100.00
2022-09-23T21:38:01.145Z,100.00
2022-09-23T21:40:49.356Z,100.00
2022-09-23T21:43:19.891Z,100.00
2022-09-23T21:45:50.050Z,100.00
2022-09-23T21:48:19.507Z,100.00
2022-09-23T21:51:07.382Z,100.00
2022-09-23T21:53:37.616Z,100.00
2022-09-23T21:56:20.319Z,100.00
2022-09-23T21:58:52.341Z,100.00
2022-09-23T22:01:36.589Z,100.00
2022-09-23T22:04:18.948Z,100.00
2022-09-23T22:06:51.551Z,100.00
2022-09-23T22:09:22.398Z,100.00
2022-09-23T22:12:11.840Z,100.00
2022-09-23T22:14:42.944Z,100.00
2022-09-23T22:17:14.735Z,100.00
2022-09-23T22:19:47.117Z,100.00
2022-09-23T22:22:18.923Z,100.00
2022-09-23T22:24:49.876Z,100.00
2022-09-23T22:27:20.643Z,100.00
2022-09-23T22:30:07.863Z,100.00
2022-09-23T22:32:53.022Z,100.00
2022-09-23T22:35:23.704Z,100.00
2022-09-23T22:37:53.163Z,100.00
2022-09-23T22:40:24.314Z,100.00
2022-09-23T22:42:54.372Z,100.00
2022-09-23T22:45:26.682Z,100.00
2022-09-23T22:47:55.426Z,100.00
2022-09-23T22:50:24.118Z,100.00
2022-09-23T22:52:53.283Z,100.00
2022-09-23T22:55:22.037Z,100.00
2022-09-23T22:57:51.744Z,100.00
2022-09-23T23:00:20.481Z,100.00
2022-09-23T23:02:49.133Z,100.00
2022-09-23T23:05:17.827Z,100.00
2022-09-23T23:07:46.547Z,100.00
2022-09-23T23:10:17.060Z,100.00
2022-09-23T23:12:47.030Z,100.00
2022-09-23T23:15:16.404Z,100.00
2022-09-23T23:17:47.890Z,100.00
2022-09-23T23:20:19.815Z,100.00
2022-09-23T23:22:48.454Z,100.00
2022-09-23T23:25:17.252Z,100.00
2022-09-23T23:27:46.886Z,100.00
2022-09-23T23:30:16.367Z,100.00
2022-09-23T23:32:45.024Z,100.00
2022-09-23T23:35:14.152Z,100.00
2022-09-23T23:37:42.772Z,100.00
2022-09-23T23:40:11.728Z,100.00
2022-09-23T23:42:41.228Z,100.00
2022-09-23T23:45:10.762Z,100.00
2022-09-23T23:47:41.153Z,100.00
2022-09-23T23:50:11.072Z,100.00
2022-09-23T23:52:40.516Z,100.00
2022-09-23T23:55:09.879Z,100.00
2022-09-23T23:57:39.319Z,100.00
